sensor_id;sensor_type;location;lat;lon;timestamp;P1;durP1;ratioP1;P2;durP2;ratioP2
505;SDS011;551;48.524;9.056;2024-01-15T00:01:16;20.07;;;9.60;;
505;SDS011;551;48.524;9.056;2024-01-15T00:03:42;26.47;;;10.23;;
505;SDS011;551;48.524;9.056;2024-01-15T00:06:07;17.73;;;9.63;;
505;SDS011;551;48.524;9.056;2024-01-15T00:08:33;18.70;;;8.83;;
505;SDS011;551;48.524;9.056;2024-01-15T00:10:58;22.10;;;9.10;;
505;SDS011;551;48.524;9.056;2024-01-15T00:13:24;18.90;;;9.80;;
505;SDS011;551;48.524;9.056;2024-01-15T00:15:49;28.43;;;9.93;;
505;SDS011;551;48.524;9.056;2024-01-15T00:18:15;29.00;;;9.70;;
505;SDS011;551;48.524;9.056;2024-01-15T00:20:40;21.60;;;9.10;;
505;SDS011;551;48.524;9.056;2024-01-15T00:23:06;22.93;;;10.10;;
505;SDS011;551;48.524;9.056;2024-01-15T00:25:31;29.40;;;11.60;;
505;SDS011;551;48.524;9.056;2024-01-15T00:27:57;24.47;;;9.60;;
505;SDS011;551;48.524;9.056;2024-01-15T00:30:22;23.73;;;8.60;;
505;SDS011;551;48.524;9.056;2024-01-15T00:32:48;22.93;;;9.80;;
505;SDS011;551;48.524;9.056;2024-01-15T00:35:14;23.77;;;8.73;;
505;SDS011;551;48.524;9.056;2024-01-15T00:37:39;19.10;;;8.47;;
505;SDS011;551;48.524;9.056;2024-01-15T00:40:05;23.10;;;9.50;;
505;SDS011;551;48.524;9.056;2024-01-15T00:42:32;22.30;;;9.07;;
505;SDS011;551;48.524;9.056;2024-01-15T00:44:58;26.43;;;8.73;;
505;SDS011;551;48.524;9.056;2024-01-15T00:47:24;19.67;;;10.17;;
505;SDS011;551;48.524;9.056;2024-01-15T00:49:49;21.87;;;9.27;;
505;SDS011;551;48.524;9.056;2024-01-15T00:52:15;23.10;;;9.53;;
505;SDS011;551;48.524;9.056;2024-01-15T00:54:40;16.87;;;9.57;;
505;SDS011;551;48.524;9.056;2024-01-15T00:57:06;20.27;;;9.20;;
505;SDS011;551;48.524;9.056;2024-01-15T00:59:31;20.03;;;9.27;;
505;SDS011;551;48.524;9.056;2024-01-15T01:01:57;24.50;;;9.47;;
505;SDS011;551;48.524;9.056;2024-01-15T01:04:22;25.37;;;9.90;;
505;SDS011;551;48.524;9.056;2024-01-15T01:06:48;17.90;;;9.80;;
505;SDS011;551;48.524;9.056;2024-01-15T01:09:13;20.47;;;8.53;;
505;SDS011;551;48.524;9.056;2024-01-15T01:11:39;23.90;;;10.87;;
505;SDS011;551;48.524;9.056;2024-01-15T01:14:04;19.80;;;8.90;;
505;SDS011;551;48.524;9.056;2024-01-15T01:16:30;17.20;;;7.97;;
505;SDS011;551;48.524;9.056;2024-01-15T01:18:56;16.43;;;8.73;;
505;SDS011;551;48.524;9.056;2024-01-15T01:21:22;24.10;;;9.20;;
505;SDS011;551;48.524;9.056;2024-01-15T01:23:47;23.07;;;9.80;;
505;SDS011;551;48.524;9.056;2024-01-15T01:26:16;17.90;;;8.63;;
505;SDS011;551;48.524;9.056;2024-01-15T01:28:42;25.87;;;9.87;;
505;SDS011;551;48.524;9.056;2024-01-15T01:31:08;20.00;;;8.47;;
505;SDS011;551;48.524;9.056;2024-01-15T01:33:33;22.57;;;9.40;;
505;SDS011;551;48.524;9.056;2024-01-15T01:35:59;20.00;;;9.90;;
505;SDS011;551;48.524;9.056;2024-01-15T01:38:24;16.90;;;9.80;;
505;SDS011;551;48.524;9.056;2024-01-15T01:40:50;20.00;;;8.57;;
505;SDS011;551;48.524;9.056;2024-01-15T01:43:15;20.37;;;8.30;;
505;SDS011;551;48.524;9.056;2024-01-15T01:45:41;22.13;;;8.17;;
505;SDS011;551;48.524;9.056;2024-01-15T01:48:06;16.87;;;8.87;;
505;SDS011;551;48.524;9.056;2024-01-15T01:50:32;22.07;;;8.90;;
505;SDS011;551;48.524;9.056;2024-01-15T01:52:58;20.10;;;8.50;;
505;SDS011;551;48.524;9.056;2024-01-15T01:55:26;22.97;;;10.53;;
505;SDS011;551;48.524;9.056;2024-01-15T01:57:54;27.80;;;9.60;;
505;SDS011;551;48.524;9.056;2024-01-15T02:00:20;19.30;;;7.70;;
505;SDS011;551;48.524;9.056;2024-01-15T02:02:46;15.83;;;7.40;;
505;SDS011;551;48.524;9.056;2024-01-15T02:05:12;17.80;;;7.80;;
505;SDS011;551;48.524;9.056;2024-01-15T02:07:43;21.63;;;8.73;;
505;SDS011;551;48.524;9.056;2024-01-15T02:10:09;17.77;;;8.43;;
505;SDS011;551;48.524;9.056;2024-01-15T02:12:35;17.00;;;7.77;;
505;SDS011;551;48.524;9.056;2024-01-15T02:15:00;20.73;;;8.30;;
505;SDS011;551;48.524;9.056;2024-01-15T02:17:26;19.47;;;8.27;;
505;SDS011;551;48.524;9.056;2024-01-15T02:19:52;18.60;;;8.80;;
505;SDS011;551;48.524;9.056;2024-01-15T02:22:17;14.73;;;6.50;;
505;SDS011;551;48.524;9.056;2024-01-15T02:24:43;19.27;;;8.70;;
505;SDS011;551;48.524;9.056;2024-01-15T02:27:08;17.53;;;7.30;;
505;SDS011;551;48.524;9.056;2024-01-15T02:29:34;25.93;;;9.90;;
505;SDS011;551;48.524;9.056;2024-01-15T02:32:03;17.60;;;7.80;;
505;SDS011;551;48.524;9.056;2024-01-15T02:34:31;20.50;;;6.80;;
505;SDS011;551;48.524;9.056;2024-01-15T02:36:57;21.90;;;8.60;;
505;SDS011;551;48.524;9.056;2024-01-15T02:39:22;16.73;;;7.80;;
505;SDS011;551;48.524;9.056;2024-01-15T02:41:48;17.07;;;9.40;;
505;SDS011;551;48.524;9.056;2024-01-15T02:44:13;14.20;;;7.17;;
505;SDS011;551;48.524;9.056;2024-01-15T02:46:39;19.80;;;8.40;;
505;SDS011;551;48.524;9.056;2024-01-15T02:49:04;26.17;;;8.23;;
505;SDS011;551;48.524;9.056;2024-01-15T02:51:30;18.40;;;8.57;;
505;SDS011;551;48.524;9.056;2024-01-15T02:53:55;19.60;;;8.70;;
505;SDS011;551;48.524;9.056;2024-01-15T02:56:21;20.00;;;6.80;;
505;SDS011;551;48.524;9.056;2024-01-15T02:58:46;14.30;;;7.47;;
505;SDS011;551;48.524;9.056;2024-01-15T03:01:12;17.70;;;8.63;;
505;SDS011;551;48.524;9.056;2024-01-15T03:03:37;19.73;;;7.37;;
505;SDS011;551;48.524;9.056;2024-01-15T03:06:05;22.40;;;8.47;;
505;SDS011;551;48.524;9.056;2024-01-15T03:08:31;20.70;;;7.70;;
505;SDS011;551;48.524;9.056;2024-01-15T03:10:56;18.00;;;7.37;;
505;SDS011;551;48.524;9.056;2024-01-15T03:13:22;16.60;;;6.50;;
505;SDS011;551;48.524;9.056;2024-01-15T03:15:47;22.93;;;8.67;;
505;SDS011;551;48.524;9.056;2024-01-15T03:18:13;19.87;;;8.00;;
505;SDS011;551;48.524;9.056;2024-01-15T03:20:38;13.50;;;5.80;;
505;SDS011;551;48.524;9.056;2024-01-15T03:23:04;20.33;;;8.67;;
505;SDS011;551;48.524;9.056;2024-01-15T03:25:30;18.27;;;8.77;;
505;SDS011;551;48.524;9.056;2024-01-15T03:27:55;17.43;;;8.00;;
505;SDS011;551;48.524;9.056;2024-01-15T03:30:21;18.37;;;8.00;;
505;SDS011;551;48.524;9.056;2024-01-15T03:32:46;16.27;;;7.90;;
505;SDS011;551;48.524;9.056;2024-01-15T03:35:12;15.87;;;7.20;;
505;SDS011;551;48.524;9.056;2024-01-15T03:37:38;22.07;;;7.93;;
505;SDS011;551;48.524;9.056;2024-01-15T03:40:03;17.50;;;7.40;;
505;SDS011;551;48.524;9.056;2024-01-15T03:42:29;22.40;;;9.10;;
505;SDS011;551;48.524;9.056;2024-01-15T03:44:55;16.63;;;7.33;;
505;SDS011;551;48.524;9.056;2024-01-15T03:47:20;15.70;;;7.47;;
505;SDS011;551;48.524;9.056;2024-01-15T03:49:46;16.77;;;7.47;;
505;SDS011;551;48.524;9.056;2024-01-15T03:52:11;21.63;;;9.47;;
505;SDS011;551;48.524;9.056;2024-01-15T03:54:38;23.80;;;8.37;;
505;SDS011;551;48.524;9.056;2024-01-15T03:57:03;21.10;;;8.37;;
505;SDS011;551;48.524;9.056;2024-01-15T03:59:29;20.87;;;8.20;;
505;SDS011;551;48.524;9.056;2024-01-15T04:01:55;26.27;;;8.50;;
505;SDS011;551;48.524;9.056;2024-01-15T04:04:20;24.67;;;8.23;;
505;SDS011;551;48.524;9.056;2024-01-15T04:06:46;14.80;;;7.17;;
505;SDS011;551;48.524;9.056;2024-01-15T04:09:12;21.83;;;7.67;;
505;SDS011;551;48.524;9.056;2024-01-15T04:11:38;18.37;;;7.80;;
505;SDS011;551;48.524;9.056;2024-01-15T04:14:04;17.27;;;7.73;;
505;SDS011;551;48.524;9.056;2024-01-15T04:16:30;21.90;;;8.27;;
505;SDS011;551;48.524;9.056;2024-01-15T04:18:55;17.87;;;7.90;;
505;SDS011;551;48.524;9.056;2024-01-15T04:21:21;22.50;;;8.97;;
505;SDS011;551;48.524;9.056;2024-01-15T04:23:46;21.27;;;8.20;;
505;SDS011;551;48.524;9.056;2024-01-15T04:26:12;18.53;;;9.20;;
505;SDS011;551;48.524;9.056;2024-01-15T04:28:37;21.37;;;7.47;;
505;SDS011;551;48.524;9.056;2024-01-15T04:31:03;17.70;;;7.80;;
505;SDS011;551;48.524;9.056;2024-01-15T04:33:28;17.87;;;8.17;;
505;SDS011;551;48.524;9.056;2024-01-15T04:35:54;17.13;;;9.73;;
505;SDS011;551;48.524;9.056;2024-01-15T04:38:19;22.83;;;8.90;;
505;SDS011;551;48.524;9.056;2024-01-15T04:40:45;21.93;;;6.90;;
505;SDS011;551;48.524;9.056;2024-01-15T04:43:10;27.17;;;8.93;;
505;SDS011;551;48.524;9.056;2024-01-15T04:45:36;22.63;;;7.83;;
505;SDS011;551;48.524;9.056;2024-01-15T04:48:02;18.10;;;8.33;;
505;SDS011;551;48.524;9.056;2024-01-15T04:50:28;21.43;;;8.23;;
505;SDS011;551;48.524;9.056;2024-01-15T04:52:53;18.03;;;8.30;;
505;SDS011;551;48.524;9.056;2024-01-15T04:55:19;17.77;;;8.20;;
505;SDS011;551;48.524;9.056;2024-01-15T04:57:44;15.10;;;7.60;;
505;SDS011;551;48.524;9.056;2024-01-15T05:00:11;25.80;;;8.70;;
505;SDS011;551;48.524;9.056;2024-01-15T05:02:38;18.97;;;9.30;;
505;SDS011;551;48.524;9.056;2024-01-15T05:05:03;17.33;;;9.57;;
505;SDS011;551;48.524;9.056;2024-01-15T05:07:29;23.50;;;11.23;;
505;SDS011;551;48.524;9.056;2024-01-15T05:09:54;22.67;;;8.20;;
505;SDS011;551;48.524;9.056;2024-01-15T05:12:20;23.23;;;9.40;;
505;SDS011;551;48.524;9.056;2024-01-15T05:14:45;17.20;;;8.23;;
505;SDS011;551;48.524;9.056;2024-01-15T05:17:11;17.43;;;8.43;;
505;SDS011;551;48.524;9.056;2024-01-15T05:19:36;17.40;;;8.10;;
505;SDS011;551;48.524;9.056;2024-01-15T05:22:02;19.70;;;9.37;;
505;SDS011;551;48.524;9.056;2024-01-15T05:24:27;18.13;;;8.50;;
505;SDS011;551;48.524;9.056;2024-01-15T05:26:53;27.23;;;11.43;;
505;SDS011;551;48.524;9.056;2024-01-15T05:29:18;21.50;;;8.83;;
505;SDS011;551;48.524;9.056;2024-01-15T05:31:44;22.13;;;9.80;;
505;SDS011;551;48.524;9.056;2024-01-15T05:34:10;21.83;;;9.27;;
505;SDS011;551;48.524;9.056;2024-01-15T05:36:35;22.00;;;8.87;;
505;SDS011;551;48.524;9.056;2024-01-15T05:39:01;24.87;;;10.10;;
505;SDS011;551;48.524;9.056;2024-01-15T05:41:26;21.13;;;9.80;;
505;SDS011;551;48.524;9.056;2024-01-15T05:43:52;18.90;;;8.90;;
505;SDS011;551;48.524;9.056;2024-01-15T05:46:17;18.30;;;9.20;;
505;SDS011;551;48.524;9.056;2024-01-15T05:48:43;22.70;;;10.00;;
505;SDS011;551;48.524;9.056;2024-01-15T05:51:08;24.33;;;9.23;;
505;SDS011;551;48.524;9.056;2024-01-15T05:53:35;20.30;;;8.30;;
505;SDS011;551;48.524;9.056;2024-01-15T05:56:00;21.53;;;10.70;;
505;SDS011;551;48.524;9.056;2024-01-15T05:58:26;17.77;;;8.73;;
505;SDS011;551;48.524;9.056;2024-01-15T06:00:51;21.67;;;9.40;;
505;SDS011;551;48.524;9.056;2024-01-15T06:03:17;17.27;;;9.80;;
505;SDS011;551;48.524;9.056;2024-01-15T06:05:43;25.43;;;10.33;;
505;SDS011;551;48.524;9.056;2024-01-15T06:08:08;22.20;;;8.70;;
505;SDS011;551;48.524;9.056;2024-01-15T06:10:34;24.37;;;8.67;;
505;SDS011;551;48.524;9.056;2024-01-15T06:13:00;16.83;;;7.47;;
505;SDS011;551;48.524;9.056;2024-01-15T06:15:26;17.17;;;8.17;;
505;SDS011;551;48.524;9.056;2024-01-15T06:17:51;21.07;;;8.43;;
505;SDS011;551;48.524;9.056;2024-01-15T06:20:17;20.30;;;9.73;;
505;SDS011;551;48.524;9.056;2024-01-15T06:22:42;25.63;;;10.83;;
505;SDS011;551;48.524;9.056;2024-01-15T06:25:08;23.30;;;9.77;;
505;SDS011;551;48.524;9.056;2024-01-15T06:27:34;22.03;;;9.67;;
505;SDS011;551;48.524;9.056;2024-01-15T06:29:59;21.90;;;10.43;;
505;SDS011;551;48.524;9.056;2024-01-15T06:32:25;19.23;;;8.83;;
505;SDS011;551;48.524;9.056;2024-01-15T06:34:50;16.73;;;9.90;;
505;SDS011;551;48.524;9.056;2024-01-15T06:37:16;26.97;;;9.50;;
505;SDS011;551;48.524;9.056;2024-01-15T06:39:43;17.60;;;8.93;;
505;SDS011;551;48.524;9.056;2024-01-15T06:42:09;19.00;;;9.20;;
505;SDS011;551;48.524;9.056;2024-01-15T06:44:34;19.83;;;8.67;;
505;SDS011;551;48.524;9.056;2024-01-15T06:47:00;20.03;;;8.90;;
505;SDS011;551;48.524;9.056;2024-01-15T06:49:28;16.67;;;9.00;;
505;SDS011;551;48.524;9.056;2024-01-15T06:51:54;20.10;;;8.63;;
505;SDS011;551;48.524;9.056;2024-01-15T06:54:20;19.07;;;8.77;;
505;SDS011;551;48.524;9.056;2024-01-15T06:56:45;19.00;;;8.00;;
505;SDS011;551;48.524;9.056;2024-01-15T06:59:11;18.70;;;8.93;;
505;SDS011;551;48.524;9.056;2024-01-15T07:01:36;21.73;;;10.10;;
505;SDS011;551;48.524;9.056;2024-01-15T07:04:02;21.13;;;9.00;;
505;SDS011;551;48.524;9.056;2024-01-15T07:06:28;20.07;;;8.97;;
505;SDS011;551;48.524;9.056;2024-01-15T07:08:55;19.43;;;9.07;;
505;SDS011;551;48.524;9.056;2024-01-15T07:11:20;22.60;;;9.43;;
505;SDS011;551;48.524;9.056;2024-01-15T07:13:46;16.80;;;8.13;;
505;SDS011;551;48.524;9.056;2024-01-15T07:16:11;13.90;;;7.20;;
505;SDS011;551;48.524;9.056;2024-01-15T07:18:37;13.90;;;7.50;;
505;SDS011;551;48.524;9.056;2024-01-15T07:21:02;19.83;;;8.13;;
505;SDS011;551;48.524;9.056;2024-01-15T07:23:30;20.80;;;9.33;;
505;SDS011;551;48.524;9.056;2024-01-15T07:25:56;19.73;;;7.93;;
505;SDS011;551;48.524;9.056;2024-01-15T07:28:22;20.80;;;9.70;;
505;SDS011;551;48.524;9.056;2024-01-15T07:30:48;16.90;;;7.60;;
505;SDS011;551;48.524;9.056;2024-01-15T07:33:13;17.03;;;9.30;;
505;SDS011;551;48.524;9.056;2024-01-15T07:35:39;16.23;;;7.10;;
505;SDS011;551;48.524;9.056;2024-01-15T07:38:04;12.63;;;6.70;;
505;SDS011;551;48.524;9.056;2024-01-15T07:40:30;16.93;;;7.33;;
505;SDS011;551;48.524;9.056;2024-01-15T07:42:55;16.00;;;7.17;;
505;SDS011;551;48.524;9.056;2024-01-15T07:45:21;30.07;;;7.93;;
505;SDS011;551;48.524;9.056;2024-01-15T07:47:46;20.50;;;8.83;;
505;SDS011;551;48.524;9.056;2024-01-15T07:50:12;20.00;;;7.90;;
505;SDS011;551;48.524;9.056;2024-01-15T07:52:38;18.63;;;7.10;;
505;SDS011;551;48.524;9.056;2024-01-15T07:55:06;12.00;;;8.00;;
505;SDS011;551;48.524;9.056;2024-01-15T07:57:32;20.73;;;10.17;;
505;SDS011;551;48.524;9.056;2024-01-15T07:59:58;17.17;;;7.67;;
505;SDS011;551;48.524;9.056;2024-01-15T08:02:24;17.20;;;7.30;;
505;SDS011;551;48.524;9.056;2024-01-15T08:04:49;20.30;;;8.93;;
505;SDS011;551;48.524;9.056;2024-01-15T08:07:15;19.90;;;8.80;;
505;SDS011;551;48.524;9.056;2024-01-15T08:09:40;12.33;;;6.70;;
505;SDS011;551;48.524;9.056;2024-01-15T08:12:06;14.30;;;9.07;;
505;SDS011;551;48.524;9.056;2024-01-15T08:14:32;11.93;;;8.10;;
505;SDS011;551;48.524;9.056;2024-01-15T08:16:58;15.33;;;8.00;;
505;SDS011;551;48.524;9.056;2024-01-15T08:19:23;19.23;;;8.20;;
505;SDS011;551;48.524;9.056;2024-01-15T08:21:49;16.10;;;7.60;;
505;SDS011;551;48.524;9.056;2024-01-15T08:24:15;15.13;;;8.50;;
505;SDS011;551;48.524;9.056;2024-01-15T08:26:41;16.20;;;8.37;;
505;SDS011;551;48.524;9.056;2024-01-15T08:29:07;18.70;;;6.90;;
505;SDS011;551;48.524;9.056;2024-01-15T08:31:33;14.67;;;7.70;;
505;SDS011;551;48.524;9.056;2024-01-15T08:33:58;13.83;;;7.53;;
505;SDS011;551;48.524;9.056;2024-01-15T08:36:24;15.33;;;7.93;;
505;SDS011;551;48.524;9.056;2024-01-15T08:38:50;13.83;;;8.07;;
505;SDS011;551;48.524;9.056;2024-01-15T08:41:16;15.80;;;8.33;;
505;SDS011;551;48.524;9.056;2024-01-15T08:43:41;15.13;;;6.67;;
505;SDS011;551;48.524;9.056;2024-01-15T08:46:07;16.83;;;8.30;;
505;SDS011;551;48.524;9.056;2024-01-15T08:48:32;15.87;;;5.73;;
505;SDS011;551;48.524;9.056;2024-01-15T08:50:58;10.87;;;7.17;;
505;SDS011;551;48.524;9.056;2024-01-15T08:53:23;9.33;;;5.07;;
505;SDS011;551;48.524;9.056;2024-01-15T08:55:49;11.37;;;6.30;;
505;SDS011;551;48.524;9.056;2024-01-15T08:58:14;13.17;;;6.27;;
505;SDS011;551;48.524;9.056;2024-01-15T09:00:40;13.50;;;6.17;;
505;SDS011;551;48.524;9.056;2024-01-15T09:03:06;9.60;;;5.40;;
505;SDS011;551;48.524;9.056;2024-01-15T09:05:33;12.20;;;5.07;;
505;SDS011;551;48.524;9.056;2024-01-15T09:07:59;12.13;;;4.80;;
505;SDS011;551;48.524;9.056;2024-01-15T09:10:24;8.57;;;5.10;;
505;SDS011;551;48.524;9.056;2024-01-15T09:12:50;9.43;;;4.57;;
505;SDS011;551;48.524;9.056;2024-01-15T09:15:15;9.90;;;5.27;;
505;SDS011;551;48.524;9.056;2024-01-15T09:17:41;12.73;;;6.03;;
505;SDS011;551;48.524;9.056;2024-01-15T09:20:07;12.90;;;5.43;;
505;SDS011;551;48.524;9.056;2024-01-15T09:22:34;13.97;;;6.00;;
505;SDS011;551;48.524;9.056;2024-01-15T09:25:00;12.63;;;5.70;;
505;SDS011;551;48.524;9.056;2024-01-15T09:27:26;12.40;;;6.10;;
505;SDS011;551;48.524;9.056;2024-01-15T09:29:52;12.23;;;5.60;;
505;SDS011;551;48.524;9.056;2024-01-15T09:32:17;11.70;;;5.40;;
505;SDS011;551;48.524;9.056;2024-01-15T09:34:43;11.10;;;5.93;;
505;SDS011;551;48.524;9.056;2024-01-15T09:37:09;20.03;;;6.63;;
505;SDS011;551;48.524;9.056;2024-01-15T09:39:34;16.03;;;6.70;;
505;SDS011;551;48.524;9.056;2024-01-15T09:42:00;11.87;;;6.07;;
505;SDS011;551;48.524;9.056;2024-01-15T09:44:26;11.93;;;4.70;;
505;SDS011;551;48.524;9.056;2024-01-15T09:46:53;6.40;;;3.53;;
505;SDS011;551;48.524;9.056;2024-01-15T09:49:20;14.67;;;5.03;;
505;SDS011;551;48.524;9.056;2024-01-15T09:51:45;17.00;;;4.37;;
505;SDS011;551;48.524;9.056;2024-01-15T09:54:12;8.63;;;4.50;;
505;SDS011;551;48.524;9.056;2024-01-15T09:56:38;17.07;;;4.07;;
505;SDS011;551;48.524;9.056;2024-01-15T09:59:04;7.57;;;3.47;;
505;SDS011;551;48.524;9.056;2024-01-15T10:01:33;6.83;;;3.23;;
505;SDS011;551;48.524;9.056;2024-01-15T10:04:01;12.47;;;4.23;;
505;SDS011;551;48.524;9.056;2024-01-15T10:06:27;7.33;;;2.90;;
505;SDS011;551;48.524;9.056;2024-01-15T10:08:53;10.80;;;3.97;;
505;SDS011;551;48.524;9.056;2024-01-15T10:11:20;16.60;;;4.67;;
505;SDS011;551;48.524;9.056;2024-01-15T10:13:46;6.17;;;2.83;;
505;SDS011;551;48.524;9.056;2024-01-15T10:16:15;9.13;;;3.40;;
505;SDS011;551;48.524;9.056;2024-01-15T10:18:41;10.43;;;3.70;;
505;SDS011;551;48.524;9.056;2024-01-15T10:21:07;8.10;;;2.73;;
505;SDS011;551;48.524;9.056;2024-01-15T10:23:33;7.33;;;2.77;;
505;SDS011;551;48.524;9.056;2024-01-15T10:25:59;5.50;;;3.17;;
505;SDS011;551;48.524;9.056;2024-01-15T10:28:28;5.60;;;2.67;;
505;SDS011;551;48.524;9.056;2024-01-15T10:30:56;12.80;;;3.37;;
505;SDS011;551;48.524;9.056;2024-01-15T10:33:22;5.43;;;2.67;;
505;SDS011;551;48.524;9.056;2024-01-15T10:35:54;14.93;;;3.40;;
505;SDS011;551;48.524;9.056;2024-01-15T10:38:21;5.77;;;3.03;;
505;SDS011;551;48.524;9.056;2024-01-15T10:40:48;15.73;;;6.47;;
505;SDS011;551;48.524;9.056;2024-01-15T10:43:16;12.20;;;4.57;;
505;SDS011;551;48.524;9.056;2024-01-15T10:45:45;7.13;;;3.23;;
505;SDS011;551;48.524;9.056;2024-01-15T10:48:11;4.00;;;3.30;;
505;SDS011;551;48.524;9.056;2024-01-15T10:50:37;3.70;;;3.00;;
505;SDS011;551;48.524;9.056;2024-01-15T10:53:03;5.17;;;2.87;;
505;SDS011;551;48.524;9.056;2024-01-15T10:55:29;4.47;;;3.00;;
505;SDS011;551;48.524;9.056;2024-01-15T10:57:56;5.53;;;3.47;;
505;SDS011;551;48.524;9.056;2024-01-15T11:00:22;6.90;;;3.40;;
505;SDS011;551;48.524;9.056;2024-01-15T11:02:50;7.18;;;3.40;;
505;SDS011;551;48.524;9.056;2024-01-15T11:05:16;8.93;;;3.23;;
505;SDS011;551;48.524;9.056;2024-01-15T11:07:43;4.83;;;2.90;;
505;SDS011;551;48.524;9.056;2024-01-15T11:10:21;7.77;;;3.67;;
505;SDS011;551;48.524;9.056;2024-01-15T11:15:57;5.80;;;2.70;;
505;SDS011;551;48.524;9.056;2024-01-15T11:18:28;13.50;;;2.73;;
505;SDS011;551;48.524;9.056;2024-01-15T11:23:45;8.73;;;3.30;;
505;SDS011;551;48.524;9.056;2024-01-15T11:28:55;6.70;;;2.93;;
505;SDS011;551;48.524;9.056;2024-01-15T11:34:09;4.03;;;3.63;;
505;SDS011;551;48.524;9.056;2024-01-15T11:41:58;8.33;;;3.30;;
505;SDS011;551;48.524;9.056;2024-01-15T11:44:28;3.70;;;3.07;;
505;SDS011;551;48.524;9.056;2024-01-15T11:47:00;4.50;;;2.83;;
505;SDS011;551;48.524;9.056;2024-01-15T11:49:42;5.93;;;4.00;;
505;SDS011;551;48.524;9.056;2024-01-15T11:52:19;5.30;;;3.23;;
505;SDS011;551;48.524;9.056;2024-01-15T11:54:55;5.33;;;3.40;;
505;SDS011;551;48.524;9.056;2024-01-15T12:00:14;8.60;;;4.43;;
505;SDS011;551;48.524;9.056;2024-01-15T12:02:40;8.30;;;3.87;;
505;SDS011;551;48.524;9.056;2024-01-15T12:05:11;7.87;;;4.07;;
505;SDS011;551;48.524;9.056;2024-01-15T12:07:42;8.63;;;4.37;;
505;SDS011;551;48.524;9.056;2024-01-15T12:10:14;7.97;;;3.60;;
505;SDS011;551;48.524;9.056;2024-01-15T12:13:00;5.40;;;3.53;;
505;SDS011;551;48.524;9.056;2024-01-15T12:15:34;7.00;;;3.60;;
505;SDS011;551;48.524;9.056;2024-01-15T12:18:00;6.40;;;3.87;;
505;SDS011;551;48.524;9.056;2024-01-15T12:20:30;4.40;;;3.40;;
505;SDS011;551;48.524;9.056;2024-01-15T12:22:56;6.30;;;3.37;;
505;SDS011;551;48.524;9.056;2024-01-15T12:25:23;4.40;;;3.47;;
505;SDS011;551;48.524;9.056;2024-01-15T12:27:49;4.80;;;3.43;;
505;SDS011;551;48.524;9.056;2024-01-15T12:30:16;5.77;;;3.80;;
505;SDS011;551;48.524;9.056;2024-01-15T12:32:42;6.13;;;3.77;;
505;SDS011;551;48.524;9.056;2024-01-15T12:35:08;7.00;;;4.53;;
505;SDS011;551;48.524;9.056;2024-01-15T12:37:35;4.90;;;3.40;;
505;SDS011;551;48.524;9.056;2024-01-15T12:40:02;8.30;;;3.90;;
505;SDS011;551;48.524;9.056;2024-01-15T12:42:29;10.13;;;4.43;;
505;SDS011;551;48.524;9.056;2024-01-15T12:44:57;7.97;;;4.63;;
505;SDS011;551;48.524;9.056;2024-01-15T12:47:23;7.70;;;3.20;;
505;SDS011;551;48.524;9.056;2024-01-15T12:49:50;6.40;;;4.10;;
505;SDS011;551;48.524;9.056;2024-01-15T12:52:20;5.83;;;4.50;;
505;SDS011;551;48.524;9.056;2024-01-15T12:54:52;5.33;;;4.17;;
505;SDS011;551;48.524;9.056;2024-01-15T12:57:18;11.30;;;4.80;;
505;SDS011;551;48.524;9.056;2024-01-15T12:59:44;8.03;;;5.00;;
505;SDS011;551;48.524;9.056;2024-01-15T13:02:13;4.83;;;4.10;;
505;SDS011;551;48.524;9.056;2024-01-15T13:04:39;6.63;;;4.63;;
505;SDS011;551;48.524;9.056;2024-01-15T13:07:05;11.93;;;5.13;;
505;SDS011;551;48.524;9.056;2024-01-15T13:09:32;8.93;;;4.07;;
505;SDS011;551;48.524;9.056;2024-01-15T13:11:58;6.23;;;4.23;;
505;SDS011;551;48.524;9.056;2024-01-15T13:14:24;6.40;;;4.60;;
505;SDS011;551;48.524;9.056;2024-01-15T13:16:49;11.37;;;6.20;;
505;SDS011;551;48.524;9.056;2024-01-15T13:19:15;10.33;;;6.30;;
505;SDS011;551;48.524;9.056;2024-01-15T13:21:40;9.67;;;5.17;;
505;SDS011;551;48.524;9.056;2024-01-15T13:24:06;7.60;;;5.07;;
505;SDS011;551;48.524;9.056;2024-01-15T13:26:32;10.63;;;5.37;;
505;SDS011;551;48.524;9.056;2024-01-15T13:29:03;11.83;;;5.37;;
505;SDS011;551;48.524;9.056;2024-01-15T13:31:29;12.83;;;5.90;;
505;SDS011;551;48.524;9.056;2024-01-15T13:33:55;11.53;;;5.00;;
505;SDS011;551;48.524;9.056;2024-01-15T13:36:24;11.90;;;5.27;;
505;SDS011;551;48.524;9.056;2024-01-15T13:38:51;10.00;;;5.83;;
505;SDS011;551;48.524;9.056;2024-01-15T13:41:18;12.00;;;5.30;;
505;SDS011;551;48.524;9.056;2024-01-15T13:43:52;11.73;;;5.13;;
505;SDS011;551;48.524;9.056;2024-01-15T13:46:19;10.50;;;5.50;;
505;SDS011;551;48.524;9.056;2024-01-15T13:48:46;11.27;;;5.67;;
505;SDS011;551;48.524;9.056;2024-01-15T13:51:12;8.07;;;5.77;;
505;SDS011;551;48.524;9.056;2024-01-15T13:53:38;13.93;;;5.60;;
505;SDS011;551;48.524;9.056;2024-01-15T13:56:04;12.03;;;5.20;;
505;SDS011;551;48.524;9.056;2024-01-15T13:58:30;10.20;;;5.43;;
505;SDS011;551;48.524;9.056;2024-01-15T14:00:57;7.57;;;5.03;;
505;SDS011;551;48.524;9.056;2024-01-15T14:03:23;10.53;;;5.50;;
505;SDS011;551;48.524;9.056;2024-01-15T14:05:50;15.03;;;6.70;;
505;SDS011;551;48.524;9.056;2024-01-15T14:08:16;12.97;;;6.20;;
505;SDS011;551;48.524;9.056;2024-01-15T14:10:42;12.03;;;6.40;;
505;SDS011;551;48.524;9.056;2024-01-15T14:13:07;7.87;;;4.97;;
505;SDS011;551;48.524;9.056;2024-01-15T14:15:33;6.93;;;5.00;;
505;SDS011;551;48.524;9.056;2024-01-15T14:17:59;14.03;;;5.73;;
505;SDS011;551;48.524;9.056;2024-01-15T14:20:25;12.20;;;6.00;;
505;SDS011;551;48.524;9.056;2024-01-15T14:22:51;8.17;;;5.50;;
505;SDS011;551;48.524;9.056;2024-01-15T14:25:17;16.40;;;7.20;;
505;SDS011;551;48.524;9.056;2024-01-15T14:27:42;12.80;;;7.00;;
505;SDS011;551;48.524;9.056;2024-01-15T14:30:08;11.87;;;6.03;;
505;SDS011;551;48.524;9.056;2024-01-15T14:32:34;13.40;;;6.87;;
505;SDS011;551;48.524;9.056;2024-01-15T14:34:59;15.73;;;7.23;;
505;SDS011;551;48.524;9.056;2024-01-15T14:37:25;12.27;;;6.57;;
505;SDS011;551;48.524;9.056;2024-01-15T14:39:51;11.00;;;5.90;;
505;SDS011;551;48.524;9.056;2024-01-15T14:42:17;13.43;;;5.60;;
505;SDS011;551;48.524;9.056;2024-01-15T14:44:42;11.10;;;6.40;;
505;SDS011;551;48.524;9.056;2024-01-15T14:47:08;10.60;;;5.50;;
505;SDS011;551;48.524;9.056;2024-01-15T14:49:33;10.37;;;5.87;;
505;SDS011;551;48.524;9.056;2024-01-15T14:51:59;13.37;;;6.60;;
505;SDS011;551;48.524;9.056;2024-01-15T14:54:25;11.00;;;4.20;;
505;SDS011;551;48.524;9.056;2024-01-15T14:56:51;8.53;;;5.33;;
505;SDS011;551;48.524;9.056;2024-01-15T14:59:17;9.90;;;5.50;;
505;SDS011;551;48.524;9.056;2024-01-15T15:01:42;11.03;;;6.13;;
505;SDS011;551;48.524;9.056;2024-01-15T15:04:08;11.50;;;5.30;;
505;SDS011;551;48.524;9.056;2024-01-15T15:06:35;8.27;;;5.10;;
505;SDS011;551;48.524;9.056;2024-01-15T15:09:01;8.20;;;5.20;;
505;SDS011;551;48.524;9.056;2024-01-15T15:11:27;11.70;;;6.30;;
505;SDS011;551;48.524;9.056;2024-01-15T15:13:52;8.67;;;5.27;;
505;SDS011;551;48.524;9.056;2024-01-15T15:16:18;8.63;;;4.23;;
505;SDS011;551;48.524;9.056;2024-01-15T15:18:43;10.13;;;4.33;;
505;SDS011;551;48.524;9.056;2024-01-15T15:21:11;6.33;;;3.97;;
505;SDS011;551;48.524;9.056;2024-01-15T15:23:36;10.73;;;5.77;;
505;SDS011;551;48.524;9.056;2024-01-15T15:26:03;9.00;;;4.70;;
505;SDS011;551;48.524;9.056;2024-01-15T15:28:29;11.47;;;4.80;;
505;SDS011;551;48.524;9.056;2024-01-15T15:30:55;11.90;;;4.80;;
505;SDS011;551;48.524;9.056;2024-01-15T15:33:21;12.33;;;4.03;;
505;SDS011;551;48.524;9.056;2024-01-15T15:35:47;7.27;;;3.47;;
505;SDS011;551;48.524;9.056;2024-01-15T15:38:16;8.60;;;3.50;;
505;SDS011;551;48.524;9.056;2024-01-15T15:40:42;5.43;;;3.40;;
505;SDS011;551;48.524;9.056;2024-01-15T15:43:08;5.87;;;3.93;;
505;SDS011;551;48.524;9.056;2024-01-15T15:45:33;4.43;;;3.10;;